Time;durP1;ratioP1;P1;durP2;ratioP2;P2;SDS_P1;SDS_P2;PMS_P1;PMS_P2;Temp;Humidity;BMP_temperature;BMP_pressure;BME280_temperature;BME280_humidity;BME280_pressure;Samples;Min_cycle;Max_cycle;Signal;HPM_P1;HPM_P2
2021/03/26 00:01:22;;;;;;;45.40;26.93;;;7.40;99.90;;;;;;4937005;29;20238;-80
2021/03/26 00:04:09;;;;;;;46.47;27.07;;;7.40;99.90;;;;;;4933830;29;20228;-80
2021/03/26 00:06:54;;;;;;;48.60;27.57;;;7.40;99.90;;;;;;4926997;29;20666;-80
2021/03/26 00:09:39;;;;;;;41.57;25.17;;;7.40;99.90;;;;;;4938694;29;20602;-80
2021/03/26 00:12:24;;;;;;;47.30;28.53;;;7.40;99.90;;;;;;4936696;29;20255;-80
2021/03/26 00:15:10;;;;;;;47.90;29.60;;;7.40;99.90;;;;;;4937396;29;20231;-80
2021/03/26 00:17:55;;;;;;;47.00;27.40;;;7.30;99.90;;;;;;4939379;29;20258;-80
2021/03/26 00:20:40;;;;;;;59.03;32.13;;;7.30;99.90;;;;;;4936312;29;20220;-81
2021/03/26 00:23:25;;;;;;;53.67;33.20;;;7.30;99.90;;;;;;4940624;29;20262;-81
2021/03/26 00:26:11;;;;;;;59.83;35.83;;;7.30;99.90;;;;;;4938909;29;20230;-81
2021/03/26 00:28:56;;;;;;;56.50;32.50;;;7.30;99.90;;;;;;4937268;29;20580;-81
2021/03/26 00:31:41;;;;;;;54.50;32.87;;;7.30;99.90;;;;;;4936342;29;20282;-81
2021/03/26 00:34:27;;;;;;;51.47;30.23;;;7.30;99.90;;;;;;4934470;29;20210;-81
2021/03/26 00:37:12;;;;;;;52.20;31.77;;;7.30;99.90;;;;;;4935519;29;20258;-81
2021/03/26 00:39:57;;;;;;;59.00;35.27;;;7.30;99.90;;;;;;4932721;29;20203;-81
2021/03/26 00:42:42;;;;;;;57.23;34.60;;;7.30;99.90;;;;;;4932350;29;20707;-81
2021/03/26 00:45:32;;;;;;;63.23;38.57;;;7.30;99.90;;;;;;4932701;29;20681;-81
2021/03/26 00:48:18;;;;;;;61.40;36.20;;;7.30;99.90;;;;;;4935154;29;20242;-81
2021/03/26 00:51:04;;;;;;;61.30;37.73;;;7.30;99.90;;;;;;4936006;29;20282;-81
2021/03/26 00:53:50;;;;;;;53.70;33.80;;;7.30;99.90;;;;;;4929051;29;20234;-81
2021/03/26 00:56:35;;;;;;;52.90;31.90;;;7.30;99.90;;;;;;4928352;29;20593;-80
2021/03/26 00:59:20;;;;;;;50.10;32.77;;;7.30;99.90;;;;;;4928943;29;20224;-81
2021/03/26 01:02:05;;;;;;;51.97;30.53;;;7.50;99.90;;;;;;4929518;29;20258;-81
2021/03/26 01:04:50;;;;;;;54.53;34.10;;;7.30;99.90;;;;;;4932478;29;20219;-81
2021/03/26 01:07:35;;;;;;;49.33;30.73;;;7.30;99.90;;;;;;4932288;29;20581;-81
2021/03/26 01:10:25;;;;;;;50.57;32.83;;;7.30;99.90;;;;;;4931700;29;20339;-82
2021/03/26 01:13:12;;;;;;;52.17;31.87;;;7.30;99.90;;;;;;4928920;29;20665;-81
2021/03/26 01:16:00;;;;;;;46.87;29.30;;;7.30;99.90;;;;;;4936174;29;20573;-81
2021/03/26 01:18:46;;;;;;;52.23;31.50;;;7.30;99.90;;;;;;4936382;29;20215;-81
2021/03/26 01:21:33;;;;;;;50.77;32.17;;;7.30;99.90;;;;;;4929778;29;20231;-81
2021/03/26 01:24:18;;;;;;;48.27;29.57;;;7.30;99.90;;;;;;4932009;29;20349;-81
2021/03/26 01:27:05;;;;;;;51.30;31.03;;;7.30;99.90;;;;;;4924474;29;20336;-81
2021/03/26 01:29:50;;;;;;;44.73;29.20;;;7.30;99.90;;;;;;4931691;29;20319;-81
2021/03/26 01:32:35;;;;;;;46.33;29.63;;;7.30;99.90;;;;;;4925602;29;20460;-81
2021/03/26 01:35:21;;;;;;;47.83;28.87;;;7.30;99.90;;;;;;4936135;29;20565;-81
2021/03/26 01:38:07;;;;;;;46.13;27.93;;;7.30;99.90;;;;;;4924662;29;20239;-81
2021/03/26 01:40:55;;;;;;;46.60;28.13;;;7.30;99.90;;;;;;4924459;29;20777;-81
2021/03/26 01:43:43;;;;;;;46.40;29.00;;;7.30;99.90;;;;;;4933466;29;20272;-81
2021/03/26 01:46:27;;;;;;;41.53;26.73;;;7.30;99.90;;;;;;4931814;29;20214;-81
2021/03/26 01:49:12;;;;;;;45.10;27.30;;;7.40;99.90;;;;;;4926546;29;20229;-81
2021/03/26 01:51:57;;;;;;;45.53;28.20;;;7.40;99.90;;;;;;4929207;29;20235;-81
2021/03/26 01:54:42;;;;;;;40.67;25.83;;;7.40;99.90;;;;;;4935938;29;20210;-82
2021/03/26 01:57:27;;;;;;;41.37;25.13;;;7.40;99.90;;;;;;4936583;29;20258;-81
2021/03/26 02:00:23;;;;;;;40.00;27.43;;;7.40;99.90;;;;;;4932518;29;20283;-82
2021/03/26 02:03:09;;;;;;;43.43;27.43;;;7.50;99.90;;;;;;4929272;29;20302;-81
2021/03/26 02:05:56;;;;;;;41.10;27.53;;;7.50;99.90;;;;;;4924487;29;20235;-81
2021/03/26 02:08:42;;;;;;;43.50;27.27;;;7.50;99.90;;;;;;4927251;29;20226;-81
2021/03/26 02:11:30;;;;;;;46.43;28.03;;;7.50;99.90;;;;;;4923289;29;20230;-81
2021/03/26 02:14:20;;;;;;;42.60;27.67;;;7.50;99.90;;;;;;4926184;29;20211;-82
2021/03/26 02:17:07;;;;;;;41.73;26.30;;;7.50;99.90;;;;;;4932436;29;20212;-81
2021/03/26 02:19:54;;;;;;;50.97;28.87;;;7.50;99.90;;;;;;4932612;29;20215;-81
2021/03/26 02:22:39;;;;;;;47.13;27.93;;;7.50;99.90;;;;;;4930368;29;20218;-81
2021/03/26 02:25:26;;;;;;;45.63;29.27;;;7.50;99.90;;;;;;4923329;29;20291;-81
2021/03/26 02:28:11;;;;;;;51.60;30.90;;;7.50;99.90;;;;;;4923723;29;20211;-81
2021/03/26 02:31:00;;;;;;;47.10;28.03;;;7.50;99.90;;;;;;4928671;29;20615;-81
2021/03/26 02:33:45;;;;;;;47.03;33.00;;;7.50;99.90;;;;;;4932895;29;20215;-81
2021/03/26 02:36:44;;;;;;;53.33;32.70;;;7.50;99.90;;;;;;4923371;29;20637;-80
2021/03/26 02:39:34;;;;;;;52.47;31.07;;;7.50;99.90;;;;;;4923690;29;20203;-81
2021/03/26 02:42:23;;;;;;;50.17;31.70;;;7.50;99.90;;;;;;4926195;29;20218;-81
2021/03/26 02:45:13;;;;;;;51.90;30.57;;;7.50;99.90;;;;;;4929200;29;20247;-81
2021/03/26 02:48:04;;;;;;;48.97;29.47;;;7.50;99.90;;;;;;4932488;29;20263;-81
2021/03/26 02:51:00;;;;;;;52.07;32.37;;;7.50;99.90;;;;;;4929609;29;20276;-81
2021/03/26 02:53:54;;;;;;;52.23;32.77;;;7.50;99.90;;;;;;4927540;29;20915;-81
2021/03/26 02:56:44;;;;;;;56.00;36.67;;;7.50;99.90;;;;;;4928891;29;20203;-81
2021/03/26 02:59:36;;;;;;;62.77;35.67;;;7.40;99.90;;;;;;4919595;29;20248;-81
2021/03/26 03:02:22;;;;;;;50.53;31.13;;;7.50;99.90;;;;;;4934541;29;20574;-81
2021/03/26 03:05:14;;;;;;;59.13;33.53;;;7.40;99.90;;;;;;4934542;29;20219;-81
2021/03/26 03:08:03;;;;;;;63.43;36.43;;;7.40;99.90;;;;;;4922145;29;20208;-81
2021/03/26 03:10:50;;;;;;;57.50;35.60;;;7.40;99.90;;;;;;4923255;29;20231;-81
2021/03/26 03:13:40;;;;;;;53.43;34.27;;;7.40;99.90;;;;;;4935534;29;20565;-81
2021/03/26 03:16:32;;;;;;;60.90;35.27;;;7.50;99.90;;;;;;4921631;29;20634;-81
2021/03/26 03:19:27;;;;;;;54.50;33.07;;;7.40;99.90;;;;;;4921129;29;20658;-81
2021/03/26 03:22:16;;;;;;;62.30;38.47;;;7.40;99.90;;;;;;4924064;29;20231;-81
2021/03/26 03:25:08;;;;;;;53.70;30.80;;;7.40;99.90;;;;;;4933828;29;20601;-81
2021/03/26 03:28:01;;;;;;;60.17;36.73;;;7.40;99.90;;;;;;4930182;29;20210;-81
2021/03/26 03:30:53;;;;;;;62.57;35.63;;;7.40;99.90;;;;;;4925764;29;20622;-81
2021/03/26 03:33:54;;;;;;;60.73;36.70;;;7.50;99.90;;;;;;4928732;29;20775;-81
2021/03/26 03:36:50;;;;;;;58.27;34.93;;;7.50;99.90;;;;;;4927576;29;20440;-81
2021/03/26 03:39:44;;;;;;;56.67;35.60;;;7.50;99.90;;;;;;4924635;29;20702;-81
2021/03/26 03:42:38;;;;;;;57.80;35.63;;;7.50;99.90;;;;;;4926228;29;20232;-81
2021/03/26 03:45:27;;;;;;;55.10;32.33;;;7.50;99.90;;;;;;4925543;29;20572;-81
2021/03/26 03:48:17;;;;;;;53.50;33.90;;;7.60;99.90;;;;;;4931009;29;20696;-81
2021/03/26 03:51:10;;;;;;;55.20;34.53;;;7.60;99.90;;;;;;4929352;29;20596;-81
2021/03/26 03:54:00;;;;;;;54.30;34.90;;;7.60;99.90;;;;;;4929156;29;20207;-81
2021/03/26 03:56:50;;;;;;;49.27;32.60;;;7.60;99.90;;;;;;4929933;29;20220;-82
2021/03/26 03:59:41;;;;;;;51.60;30.10;;;7.70;99.90;;;;;;4923791;29;20294;-81
2021/03/26 04:02:33;;;;;;;51.00;32.80;;;7.70;99.90;;;;;;4933455;29;20447;-81
2021/03/26 04:05:22;;;;;;;47.03;29.50;;;7.70;99.90;;;;;;4922989;29;20207;-81
2021/03/26 04:08:13;;;;;;;48.30;29.63;;;7.80;99.90;;;;;;4924732;29;20773;-81
2021/03/26 04:11:06;;;;;;;50.20;31.17;;;7.80;99.90;;;;;;4925925;29;20235;-82
2021/03/26 04:13:59;;;;;;;43.77;26.27;;;7.80;99.90;;;;;;4927273;29;20214;-81
2021/03/26 04:16:52;;;;;;;42.63;23.83;;;7.80;99.90;;;;;;4925828;29;20716;-81
2021/03/26 04:19:43;;;;;;;50.93;30.30;;;7.80;99.90;;;;;;4924500;29;20198;-82
2021/03/26 04:22:32;;;;;;;49.70;30.63;;;7.80;99.90;;;;;;4922331;29;20288;-82
2021/03/26 04:25:23;;;;;;;46.03;31.00;;;7.90;99.90;;;;;;4927489;29;20250;-82
2021/03/26 04:28:18;;;;;;;48.90;31.53;;;8.00;99.90;;;;;;4924473;29;20290;-81
2021/03/26 04:31:07;;;;;;;47.23;31.53;;;7.90;99.90;;;;;;4934388;29;20226;-81
2021/03/26 04:33:53;;;;;;;48.87;30.57;;;7.90;99.90;;;;;;4924706;29;20218;-81
2021/03/26 04:36:45;;;;;;;44.13;28.03;;;8.00;99.90;;;;;;4924657;29;20274;-82
2021/03/26 04:39:34;;;;;;;46.87;27.83;;;8.00;99.90;;;;;;4920572;29;20212;-81
2021/03/26 04:42:25;;;;;;;44.27;28.93;;;8.00;99.90;;;;;;4927697;29;20263;-82
2021/03/26 04:45:19;;;;;;;40.23;25.47;;;8.10;99.90;;;;;;4927692;29;20274;-82
2021/03/26 04:48:11;;;;;;;43.20;26.90;;;8.10;99.90;;;;;;4928327;29;20728;-82
2021/03/26 04:51:02;;;;;;;43.77;28.43;;;8.10;99.90;;;;;;4939367;29;20234;-82
2021/03/26 04:53:54;;;;;;;46.47;31.23;;;8.10;99.90;;;;;;4930666;29;20653;-81
2021/03/26 04:56:44;;;;;;;42.90;26.60;;;8.20;99.90;;;;;;4926798;29;20731;-82
2021/03/26 04:59:34;;;;;;;44.37;28.70;;;8.20;99.90;;;;;;4927930;29;20258;-81
2021/03/26 05:02:22;;;;;;;35.70;22.57;;;8.30;99.90;;;;;;4931644;29;20207;-81
2021/03/26 05:05:08;;;;;;;39.40;26.07;;;8.30;99.90;;;;;;4931477;29;20212;-82
2021/03/26 05:08:00;;;;;;;38.87;25.13;;;8.30;99.90;;;;;;4935175;29;20238;-82
2021/03/26 05:10:47;;;;;;;40.37;27.63;;;8.40;99.90;;;;;;4926268;29;20275;-81
2021/03/26 05:13:40;;;;;;;41.87;28.37;;;8.40;99.90;;;;;;4926164;29;20207;-81
2021/03/26 05:16:33;;;;;;;44.43;28.10;;;8.40;99.90;;;;;;4927901;29;20202;-81
2021/03/26 05:19:22;;;;;;;40.97;26.77;;;8.40;99.90;;;;;;4930779;29;20310;-81
2021/03/26 05:22:21;;;;;;;42.83;25.40;;;8.50;99.90;;;;;;4932289;29;20255;-81
2021/03/26 05:25:11;;;;;;;41.33;28.07;;;8.50;99.90;;;;;;4947728;29;20284;-80
2021/03/26 05:27:58;;;;;;;39.63;25.87;;;8.50;99.90;;;;;;4955313;29;20206;-81
2021/03/26 05:30:45;;;;;;;46.10;28.40;;;8.50;99.90;;;;;;4948124;29;20223;-81
2021/03/26 05:33:39;;;;;;;40.27;26.73;;;8.50;99.90;;;;;;4929745;29;20262;-81
2021/03/26 05:36:36;;;;;;;42.10;25.67;;;8.60;99.90;;;;;;4928342;29;20208;-81
2021/03/26 05:39:26;;;;;;;43.83;26.30;;;8.60;99.90;;;;;;4922828;29;20576;-82
2021/03/26 05:42:23;;;;;;;41.87;24.40;;;8.60;99.90;;;;;;4923324;29;20228;-82
2021/03/26 05:45:28;;;;;;;47.00;29.43;;;8.60;99.90;;;;;;4929430;29;20216;-82
2021/03/26 05:48:24;;;;;;;42.23;27.37;;;8.60;99.90;;;;;;4929515;29;20229;-82
2021/03/26 05:51:44;;;;;;;41.03;28.00;;;8.60;99.90;;;;;;4933027;29;20233;-82
2021/03/26 05:54:46;;;;;;;45.97;28.13;;;8.60;99.90;;;;;;4932267;29;20206;-80
2021/03/26 05:57:42;;;;;;;45.17;28.23;;;8.70;99.90;;;;;;4929649;29;20696;-81
2021/03/26 06:00:58;;;;;;;35.77;20.87;;;8.70;99.90;;;;;;4935202;29;20255;-82
2021/03/26 06:04:18;;;;;;;44.43;26.93;;;8.70;99.90;;;;;;4940324;29;20327;-81
2021/03/26 06:07:48;;;;;;;42.93;24.77;;;8.90;99.90;;;;;;4938009;29;20203;-81
2021/03/26 06:11:18;;;;;;;39.17;25.03;;;8.70;99.90;;;;;;4884456;29;20299;-82
2021/03/26 06:14:40;;;;;;;44.77;29.50;;;8.70;99.90;;;;;;4941170;29;20199;-81
2021/03/26 06:17:43;;;;;;;43.47;27.27;;;8.70;99.90;;;;;;4940032;29;20271;-81
2021/03/26 06:20:46;;;;;;;44.13;27.13;;;8.70;99.90;;;;;;4926766;29;20747;-80
2021/03/26 06:24:16;;;;;;;44.30;27.70;;;8.80;99.90;;;;;;4941764;29;20213;-81
2021/03/26 06:27:14;;;;;;;43.23;27.87;;;8.80;99.90;;;;;;4934601;29;20215;-81
2021/03/26 06:30:24;;;;;;;44.73;27.37;;;8.80;99.90;;;;;;4938843;29;20219;-81
2021/03/26 06:33:32;;;;;;;45.00;28.87;;;8.80;99.90;;;;;;4938831;29;20235;-81
2021/03/26 06:36:43;;;;;;;41.87;29.63;;;8.80;99.90;;;;;;4938379;29;20214;-80
2021/03/26 06:39:55;;;;;;;44.40;28.77;;;8.90;99.90;;;;;;4941193;29;20768;-81
2021/03/26 06:42:58;;;;;;;44.13;30.50;;;8.90;99.90;;;;;;4938433;28;20638;-81
2021/03/26 06:46:04;;;;;;;43.60;27.53;;;8.90;99.90;;;;;;4935008;29;20237;-81
2021/03/26 06:49:00;;;;;;;44.57;28.57;;;9.00;99.90;;;;;;4939141;29;20249;-81
2021/03/26 06:51:54;;;;;;;40.87;25.47;;;9.00;99.90;;;;;;4946115;29;20234;-81
2021/03/26 06:55:07;;;;;;;44.57;29.37;;;9.00;99.90;;;;;;4947939;29;20691;-81
2021/03/26 06:58:15;;;;;;;42.40;25.73;;;9.10;99.90;;;;;;4943252;29;20276;-81
2021/03/26 07:01:14;;;;;;;45.67;28.00;;;9.10;99.90;;;;;;4946767;29;20317;-81
2021/03/26 07:04:26;;;;;;;44.27;29.87;;;9.10;99.90;;;;;;4941802;29;20222;-81
2021/03/26 07:07:33;;;;;;;44.30;27.80;;;9.20;99.90;;;;;;4938338;29;20579;-80
2021/03/26 07:10:52;;;;;;;51.40;28.23;;;9.20;99.90;;;;;;4938182;29;20254;-81
2021/03/26 07:14:01;;;;;;;46.80;29.57;;;9.30;99.90;;;;;;4940332;29;20298;-81
2021/03/26 07:17:08;;;;;;;43.07;26.40;;;9.30;99.90;;;;;;4947362;29;20207;-81
2021/03/26 07:20:31;;;;;;;37.73;22.00;;;9.40;99.90;;;;;;4947959;29;20227;-80
2021/03/26 07:23:54;;;;;;;39.77;25.27;;;9.40;99.90;;;;;;4944857;29;20698;-81
2021/03/26 07:26:56;;;;;;;40.13;27.37;;;9.50;99.90;;;;;;4944201;29;20268;-80
2021/03/26 07:29:54;;;;;;;40.93;26.67;;;9.50;99.90;;;;;;4948870;29;20243;-81
2021/03/26 07:33:07;;;;;;;42.23;28.73;;;9.60;99.90;;;;;;4939560;29;20222;-81
2021/03/26 07:36:09;;;;;;;42.07;27.50;;;9.60;99.90;;;;;;4945629;29;20214;-81
2021/03/26 07:39:22;;;;;;;44.63;26.97;;;9.70;99.90;;;;;;4947820;29;20245;-80
2021/03/26 07:42:37;;;;;;;44.10;28.27;;;9.70;99.90;;;;;;4945267;28;20296;-81
2021/03/26 07:45:49;;;;;;;41.40;27.50;;;9.70;99.90;;;;;;4945053;29;20264;-81
2021/03/26 07:48:43;;;;;;;42.30;28.67;;;9.70;99.90;;;;;;4954250;29;20697;-81
2021/03/26 07:51:32;;;;;;;47.10;29.10;;;9.70;99.90;;;;;;4942601;29;20295;-81
2021/03/26 07:54:44;;;;;;;43.23;28.03;;;9.70;99.90;;;;;;4947730;29;20242;-81
2021/03/26 07:57:48;;;;;;;43.40;28.37;;;9.80;99.90;;;;;;4946515;29;20207;-82
2021/03/26 08:00:59;;;;;;;43.83;28.30;;;9.80;99.90;;;;;;4945514;29;20244;-80
2021/03/26 08:04:09;;;;;;;43.10;26.00;;;9.90;99.90;;;;;;4935306;29;20591;-80
2021/03/26 08:07:35;;;;;;;46.53;27.90;;;9.90;99.90;;;;;;4936943;29;20256;-82
2021/03/26 08:10:30;;;;;;;43.40;27.20;;;10.00;99.90;;;;;;4931650;29;20227;-80
2021/03/26 08:13:47;;;;;;;41.97;28.53;;;10.00;99.90;;;;;;4936649;29;20698;-80
2021/03/26 08:17:14;;;;;;;39.97;26.03;;;10.10;99.90;;;;;;4935743;29;20215;-80
2021/03/26 08:20:16;;;;;;;38.77;27.23;;;10.10;99.90;;;;;;4884509;29;20230;-80
2021/03/26 08:23:29;;;;;;;42.60;26.13;;;10.10;99.90;;;;;;4943103;29;20230;-80
2021/03/26 08:26:38;;;;;;;39.63;25.93;;;10.20;99.90;;;;;;4945333;29;20231;-81
2021/03/26 08:29:31;;;;;;;36.30;25.33;;;10.20;99.90;;;;;;4944658;29;20259;-81
2021/03/26 08:32:46;;;;;;;35.77;24.23;;;10.30;99.90;;;;;;4943617;29;20211;-81
2021/03/26 08:35:44;;;;;;;36.33;25.50;;;10.40;99.90;;;;;;4943781;29;20219;-81
2021/03/26 08:38:39;;;;;;;34.67;23.60;;;10.40;99.90;;;;;;4936511;29;20199;-81
2021/03/26 08:41:28;;;;;;;33.17;19.80;;;10.50;99.90;;;;;;4943005;29;20244;-81
2021/03/26 08:44:17;;;;;;;39.23;25.60;;;10.60;99.90;;;;;;4943046;29;20220;-81
2021/03/26 08:47:05;;;;;;;34.33;22.07;;;10.70;99.90;;;;;;4940082;29;21614;-81
2021/03/26 08:50:07;;;;;;;33.67;22.57;;;10.80;99.90;;;;;;4933911;29;20274;-81
2021/03/26 08:53:01;;;;;;;28.30;20.33;;;10.90;99.90;;;;;;4945221;29;20787;-81
2021/03/26 08:56:04;;;;;;;30.73;20.07;;;11.00;99.90;;;;;;4937294;29;20222;-81
2021/03/26 08:59:18;;;;;;;30.10;19.43;;;11.10;99.90;;;;;;4930637;29;20215;-82
2021/03/26 09:02:48;;;;;;;31.50;18.07;;;11.20;99.90;;;;;;4934400;29;20251;-81
2021/03/26 09:06:02;;;;;;;26.30;17.43;;;11.40;99.90;;;;;;4935700;29;20228;-82
2021/03/26 09:09:13;;;;;;;21.40;14.33;;;11.50;99.90;;;;;;4938795;29;20223;-82
2021/03/26 09:12:16;;;;;;;26.53;18.60;;;11.70;99.90;;;;;;4932112;29;20232;-82
2021/03/26 09:15:34;;;;;;;30.03;18.93;;;11.90;99.90;;;;;;4933429;29;20211;-82
2021/03/26 09:18:42;;;;;;;28.73;19.77;;;12.00;99.90;;;;;;4938311;29;20207;-82
2021/03/26 09:21:37;;;;;;;28.07;19.23;;;12.10;99.90;;;;;;4937338;29;20236;-83
2021/03/26 09:24:36;;;;;;;25.53;17.17;;;12.30;99.90;;;;;;4940460;29;20667;-83
2021/03/26 09:27:27;;;;;;;26.23;17.53;;;12.50;99.90;;;;;;4936715;29;20653;-83
2021/03/26 09:30:19;;;;;;;25.10;14.90;;;12.90;99.90;;;;;;4945737;29;20282;-83
2021/03/26 09:33:13;;;;;;;25.10;15.63;;;13.30;99.90;;;;;;4940425;29;20227;-83
2021/03/26 09:36:02;;;;;;;23.33;14.30;;;13.70;99.90;;;;;;4944863;29;20265;-83
2021/03/26 09:38:59;;;;;;;25.17;14.40;;;14.10;99.90;;;;;;4947302;29;20274;-83
2021/03/26 09:41:50;;;;;;;23.30;15.27;;;14.30;99.90;;;;;;4936506;29;20228;-83
2021/03/26 09:44:43;;;;;;;19.93;13.67;;;14.60;99.90;;;;;;4929873;29;20224;-83
2021/03/26 09:47:37;;;;;;;18.33;12.17;;;14.90;99.90;;;;;;4929983;29;20268;-83
2021/03/26 09:50:30;;;;;;;21.40;13.20;;;15.40;99.90;;;;;;4937970;29;20277;-83
2021/03/26 09:53:18;;;;;;;20.43;11.90;;;15.90;99.90;;;;;;4938279;29;20213;-83
2021/03/26 09:56:16;;;;;;;16.27;10.70;;;16.50;99.90;;;;;;4934579;29;20217;-83
2021/03/26 09:59:10;;;;;;;16.83;10.17;;;17.10;99.90;;;;;;4937291;29;20301;-82
2021/03/26 10:02:02;;;;;;;20.60;11.33;;;17.60;99.90;;;;;;4936901;29;20239;-83
2021/03/26 10:05:01;;;;;;;16.77;9.93;;;18.00;99.90;;;;;;4941265;29;20303;-83
2021/03/26 10:07:52;;;;;;;14.43;9.70;;;18.00;99.90;;;;;;4933728;29;20598;-82
2021/03/26 10:10:44;;;;;;;14.00;8.70;;;18.40;99.90;;;;;;4940151;29;20239;-82
2021/03/26 10:13:31;;;;;;;15.87;8.57;;;18.30;99.90;;;;;;4943553;29;20203;-82
2021/03/26 10:16:21;;;;;;;18.17;9.47;;;18.50;99.90;;;;;;4935291;29;20218;-82
2021/03/26 10:19:10;;;;;;;14.63;7.60;;;18.40;99.90;;;;;;4939121;29;20215;-82
2021/03/26 10:21:57;;;;;;;12.57;7.40;;;18.20;99.90;;;;;;4932268;29;20252;-82
2021/03/26 10:24:44;;;;;;;13.63;7.00;;;18.30;99.90;;;;;;4932814;29;20224;-82
2021/03/26 10:27:32;;;;;;;9.23;5.43;;;18.20;99.90;;;;;;4928692;29;20272;-82
2021/03/26 10:30:24;;;;;;;13.37;5.50;;;18.10;99.90;;;;;;4936380;29;20326;-82
2021/03/26 10:33:11;;;;;;;6.57;4.03;;;17.90;99.50;;;;;;4929502;29;20300;-82
2021/03/26 10:36:02;;;;;;;8.60;5.40;;;17.70;99.90;;;;;;4933565;29;20207;-82
2021/03/26 10:38:50;;;;;;;10.10;5.17;;;17.60;99.10;;;;;;4938030;29;20255;-82
2021/03/26 10:41:43;;;;;;;11.67;6.20;;;17.40;98.50;;;;;;4932276;29;20662;-82
2021/03/26 10:44:38;;;;;;;11.40;5.13;;;17.40;99.10;;;;;;4935517;29;20230;-82
2021/03/26 10:47:29;;;;;;;10.97;5.80;;;17.20;99.60;;;;;;4939073;29;20210;-82
2021/03/26 10:50:34;;;;;;;11.43;4.50;;;17.10;99.40;;;;;;4927591;29;20835;-82
2021/03/26 10:53:26;;;;;;;7.47;4.67;;;17.10;99.80;;;;;;4935119;29;20219;-82
2021/03/26 10:56:21;;;;;;;9.80;4.80;;;17.00;98.80;;;;;;4929193;29;20235;-82
2021/03/26 10:59:13;;;;;;;9.20;3.80;;;17.00;98.80;;;;;;4925455;29;20228;-82
2021/03/26 11:02:37;;;;;;;11.67;4.37;;;17.00;98.50;;;;;;4926366;29;20338;-82
2021/03/26 11:05:32;;;;;;;8.03;4.00;;;17.10;97.20;;;;;;4891811;29;20219;-84
2021/03/26 11:08:26;;;;;;;11.90;3.47;;;17.10;96.60;;;;;;4887013;29;20271;-81
2021/03/26 11:11:34;;;;;;;8.07;3.47;;;17.10;96.00;;;;;;4922276;29;20231;-81
2021/03/26 11:14:34;;;;;;;7.97;3.10;;;17.10;96.70;;;;;;4920369;29;20601;-81
2021/03/26 11:17:25;;;;;;;8.97;3.97;;;17.20;96.00;;;;;;4930825;29;20210;-81
2021/03/26 11:20:25;;;;;;;8.50;2.90;;;17.30;96.50;;;;;;4934414;29;20213;-81
2021/03/26 11:23:18;;;;;;;7.50;3.20;;;17.60;95.20;;;;;;4935920;29;20206;-82
2021/03/26 11:26:20;;;;;;;6.60;2.97;;;18.00;94.10;;;;;;4927619;29;20202;-82
2021/03/26 11:29:15;;;;;;;7.97;3.63;;;18.40;92.50;;;;;;4925545;29;20241;-81
2021/03/26 11:32:06;;;;;;;8.10;2.80;;;18.60;91.60;;;;;;4928980;29;20591;-81
2021/03/26 11:35:00;;;;;;;8.23;2.93;;;18.90;91.20;;;;;;4928898;29;20290;-82
2021/03/26 11:37:50;;;;;;;8.67;3.20;;;19.10;89.40;;;;;;4935900;29;20674;-81
2021/03/26 11:40:41;;;;;;;5.20;2.73;;;19.40;88.20;;;;;;4934738;29;20324;-82
2021/03/26 11:43:35;;;;;;;7.07;3.43;;;19.90;89.80;;;;;;4931575;29;20220;-81
2021/03/26 11:46:22;;;;;;;7.83;2.60;;;20.10;84.20;;;;;;4935103;29;20208;-83
2021/03/26 11:49:16;;;;;;;6.33;2.73;;;20.50;83.40;;;;;;4951715;29;20210;-80
2021/03/26 11:52:05;;;;;;;5.20;2.73;;;20.50;81.70;;;;;;4946983;28;20216;-80
2021/03/26 11:55:01;;;;;;;8.87;3.23;;;20.70;80.70;;;;;;4945156;29;20219;-80
2021/03/26 11:57:54;;;;;;;9.17;3.30;;;20.70;80.30;;;;;;4952528;29;20280;-80
2021/03/26 12:00:41;;;;;;;8.27;3.13;;;20.80;78.10;;;;;;4946928;29;20213;-81
2021/03/26 12:03:38;;;;;;;7.37;3.40;;;21.00;76.40;;;;;;4934103;29;20230;-82
2021/03/26 12:06:26;;;;;;;5.37;3.10;;;21.30;73.80;;;;;;4932710;29;20216;-82
2021/03/26 12:09:22;;;;;;;6.53;3.30;;;21.60;75.10;;;;;;4928678;29;20221;-82
2021/03/26 12:12:21;;;;;;;7.57;3.67;;;21.80;73.00;;;;;;4936325;29;20228;-82
2021/03/26 12:15:10;;;;;;;10.43;3.50;;;22.00;72.00;;;;;;4927201;29;20213;-82
2021/03/26 12:18:04;;;;;;;5.67;3.03;;;22.30;70.20;;;;;;4929726;29;20761;-82
2021/03/26 12:20:50;;;;;;;5.27;3.13;;;22.50;71.40;;;;;;4929094;29;20234;-83
2021/03/26 12:23:40;;;;;;;5.97;3.00;;;22.80;70.30;;;;;;4938145;29;20269;-84
2021/03/26 12:26:31;;;;;;;8.20;3.90;;;23.10;68.90;;;;;;4933780;29;20208;-83
2021/03/26 12:29:29;;;;;;;7.73;3.30;;;23.30;66.20;;;;;;4935921;29;20712;-84
2021/03/26 12:32:26;;;;;;;5.77;2.87;;;23.50;66.20;;;;;;4933508;29;20261;-83
2021/03/26 12:35:27;;;;;;;7.77;3.20;;;23.60;67.00;;;;;;4935921;29;20592;-83
2021/03/26 12:38:21;;;;;;;9.23;3.80;;;23.80;63.60;;;;;;4930539;29;20210;-83
2021/03/26 12:41:44;;;;;;;6.90;3.23;;;23.80;62.30;;;;;;4933783;29;20251;-82
2021/03/26 12:44:36;;;;;;;7.70;3.43;;;23.90;62.00;;;;;;4877152;29;20251;-84
2021/03/26 12:47:28;;;;;;;7.30;3.57;;;23.90;60.60;;;;;;4931512;29;20229;-83
2021/03/26 12:50:19;;;;;;;9.57;4.20;;;23.90;61.70;;;;;;4936571;29;20709;-84
2021/03/26 12:53:11;;;;;;;11.73;4.63;;;24.00;59.70;;;;;;4940476;29;20228;-84
2021/03/26 12:56:08;;;;;;;7.27;4.10;;;24.10;60.10;;;;;;4938208;29;20197;-84
2021/03/26 12:59:05;;;;;;;8.27;4.30;;;24.20;62.20;;;;;;4930721;29;20483;-84
2021/03/26 13:01:53;;;;;;;5.47;3.67;;;24.30;61.40;;;;;;4930882;29;20607;-85
2021/03/26 13:04:52;;;;;;;11.10;4.60;;;24.30;61.30;;;;;;4936321;29;20211;-84
2021/03/26 13:07:45;;;;;;;7.47;4.07;;;24.40;61.00;;;;;;4943292;29;20210;-82
2021/03/26 13:10:44;;;;;;;5.83;3.53;;;24.50;62.30;;;;;;4933298;29;20256;-83
2021/03/26 13:13:38;;;;;;;10.70;5.00;;;24.50;64.30;;;;;;4935303;29;20378;-83
2021/03/26 13:16:39;;;;;;;7.93;4.23;;;24.50;59.60;;;;;;4938123;29;20294;-83
2021/03/26 13:19:34;;;;;;;6.30;4.80;;;24.70;58.70;;;;;;4937385;29;20220;-83
2021/03/26 13:22:32;;;;;;;6.73;4.40;;;24.80;58.70;;;;;;4943812;29;20262;-82
2021/03/26 13:25:24;;;;;;;7.93;4.57;;;25.00;57.30;;;;;;4941598;29;20211;-83
2021/03/26 13:28:18;;;;;;;8.57;4.83;;;25.00;58.00;;;;;;4937794;29;20213;-83
2021/03/26 13:31:07;;;;;;;8.40;4.20;;;25.00;56.80;;;;;;4933316;29;20237;-84
2021/03/26 13:33:55;;;;;;;7.83;3.93;;;25.00;57.90;;;;;;4937257;29;20219;-84
2021/03/26 13:36:48;;;;;;;11.53;4.37;;;24.80;57.40;;;;;;4930987;29;20206;-85
2021/03/26 13:39:41;;;;;;;8.63;4.17;;;24.70;56.30;;;;;;4943533;29;20572;-83
2021/03/26 13:42:30;;;;;;;7.20;4.00;;;24.60;56.00;;;;;;4935096;29;20218;-83
2021/03/26 13:45:19;;;;;;;8.33;4.43;;;24.40;55.50;;;;;;4938765;29;20217;-83
2021/03/26 13:48:11;;;;;;;9.30;4.60;;;24.20;55.90;;;;;;4935611;29;20221;-82
2021/03/26 13:51:01;;;;;;;7.27;3.53;;;23.90;55.80;;;;;;4936053;29;20245;-84
2021/03/26 13:53:52;;;;;;;9.43;3.93;;;23.60;56.90;;;;;;4938549;29;20524;-83
2021/03/26 13:56:41;;;;;;;7.77;3.30;;;23.20;57.10;;;;;;4933072;29;20242;-83
2021/03/26 13:59:35;;;;;;;7.47;3.20;;;22.80;57.50;;;;;;4941659;29;20248;-81
2021/03/26 14:02:27;;;;;;;7.33;3.30;;;22.40;57.70;;;;;;4940070;29;20212;-84
2021/03/26 14:05:22;;;;;;;9.13;3.30;;;22.20;58.70;;;;;;4947046;29;20233;-83
2021/03/26 14:08:16;;;;;;;6.27;2.83;;;22.00;59.50;;;;;;4939153;29;20292;-82
2021/03/26 14:11:12;;;;;;;4.03;2.43;;;21.80;60.80;;;;;;4940807;29;20232;-82
2021/03/26 14:14:05;;;;;;;6.80;3.13;;;21.60;61.00;;;;;;4934890;29;20276;-82
2021/03/26 14:16:53;;;;;;;4.50;2.43;;;21.50;60.30;;;;;;4936740;29;20212;-83
2021/03/26 14:19:43;;;;;;;5.97;2.37;;;21.20;61.40;;;;;;4941031;29;20226;-85
2021/03/26 14:22:35;;;;;;;7.10;2.60;;;21.00;61.20;;;;;;4938724;29;20215;-84
2021/03/26 14:25:26;;;;;;;2.97;2.07;;;20.80;61.30;;;;;;4934765;29;20212;-82
2021/03/26 14:28:18;;;;;;;10.40;2.40;;;20.70;63.20;;;;;;4939699;29;20266;-83
2021/03/26 14:31:08;;;;;;;5.47;2.57;;;20.60;62.80;;;;;;4942701;29;20235;-84
2021/03/26 14:33:59;;;;;;;7.87;2.87;;;20.70;60.90;;;;;;4937189;29;20268;-83
2021/03/26 14:36:50;;;;;;;5.50;2.33;;;20.80;63.40;;;;;;4929933;29;20239;-83
2021/03/26 14:39:37;;;;;;;4.70;2.03;;;20.80;62.30;;;;;;4935278;29;20677;-83
2021/03/26 14:42:29;;;;;;;4.90;2.23;;;20.70;68.50;;;;;;4933197;29;20246;-83
2021/03/26 14:45:26;;;;;;;2.97;2.10;;;20.80;62.90;;;;;;4938230;29;20326;-84
2021/03/26 14:48:18;;;;;;;5.57;2.30;;;20.80;62.60;;;;;;4935785;29;20200;-83
2021/03/26 14:51:09;;;;;;;5.47;2.20;;;21.00;61.70;;;;;;4940478;29;20601;-83
2021/03/26 14:54:03;;;;;;;5.10;2.00;;;21.10;61.70;;;;;;4934898;29;20217;-82
2021/03/26 14:56:54;;;;;;;7.03;2.33;;;21.20;63.40;;;;;;4939832;29;20243;-84
2021/03/26 15:00:12;;;;;;;4.43;2.10;;;21.30;61.60;;;;;;4936724;29;20237;-82